KTEB/TEB METAR and TAF weather

Enter ICAO airport designator
Station Type Date Time Source
KTEB METAR 2019/04/20 21:51 UTC NOAA

KTEB 202151Z 16013G20KT 10SM CLR 18/12 A2976 RMK AO2 SLP077 T01780117


Station Type Date Time Source
KTEB Decoded METAR 2019/04/20 21:51 UTC NOAA

TETERBORO AIRPORT, NJ, United States (KTEB) 40-52N 74-03W 7M
Apr 20, 2019 - 05:51 PM EDT / 2019.04.20 2151 UTC
Wind: from the SSE (160 degrees) at 15 MPH (13 KT) gusting to 23 MPH (20 KT):0
Visibility: 10 mile(s):0
Sky conditions: clear
Temperature: 64.0 F (17.8 C)
Dew Point: 53.1 F (11.7 C)
Relative Humidity: 67%
Pressure (altimeter): 29.76 in. Hg (1007 hPa)
ob: KTEB 202151Z 16013G20KT 10SM CLR 18/12 A2976 RMK AO2 SLP077 T01780117
cycle: 22

Station Type Date Time Source
KTEB TAF 2019/04/20 21:12 UTC NOAA

TAF
AMD KTEB 202110Z 2021/2124 15012G20KT P6SM FEW009 BKN050 OVC250
FM210000 16008KT P6SM FEW015 BKN250
FM210400 VRB04KT P6SM SCT050 BKN250
FM211300 15006KT P6SM BKN100
FM211700 17009KT P6SM SCT100 BKN250

Example: see airport list